createdAt,value
2022-08-30T00:05:13.716Z,1007.153
2022-08-30T00:35:30.942Z,1007.1260000000001
2022-08-30T01:05:47.907Z,1007.2689999999999
2022-08-30T01:36:06.281Z,1007.184
2022-08-30T02:36:39.779Z,1007.0989999999999
2022-08-30T03:06:56.836Z,1006.84
2022-08-30T03:37:14.256Z,1006.85
2022-08-30T04:07:32.218Z,1006.7130000000001
2022-08-30T04:37:50.261Z,1006.828
2022-08-30T05:08:08.462Z,1006.962
2022-08-30T05:38:29.418Z,1007.199
2022-08-30T06:08:50.982Z,1007.1110000000001
2022-08-30T06:39:15.056Z,1007.172
2022-08-30T07:09:38.020Z,1007.289
2022-08-30T07:40:03.688Z,1007.429
2022-08-30T08:10:28.033Z,1007.5880000000001
2022-08-30T08:40:50.523Z,1007.571
2022-08-30T09:11:11.855Z,1007.471
2022-08-30T09:41:36.810Z,1007.2289999999999
2022-08-30T10:11:58.885Z,1007.072
2022-08-30T10:42:18.686Z,1006.85
2022-08-30T11:12:40.335Z,1006.689
2022-08-30T11:43:01.887Z,1006.6560000000001
2022-08-30T12:13:23.321Z,1006.341
2022-08-30T12:43:44.460Z,1006.293
2022-08-30T13:13:58.686Z,1005.914
2022-08-30T13:44:15.980Z,1005.8710000000001
2022-08-30T14:14:16.123Z,1005.628
2022-08-30T14:44:45.727Z,1005.262
2022-08-30T15:14:49.914Z,1004.8660000000001
2022-08-30T15:45:08.350Z,1004.727
2022-08-30T16:15:27.534Z,1004.633
2022-08-30T16:45:44.126Z,1004.5880000000001
2022-08-30T17:16:00.330Z,1004.528
2022-08-30T17:46:17.227Z,1004.7739999999999
2022-08-30T18:16:34.961Z,1004.9989999999999
2022-08-30T18:46:56.165Z,1005.102
2022-08-30T19:17:13.848Z,1005.189
2022-08-30T19:47:32.161Z,1005.419
2022-08-30T20:18:05.404Z,1005.6619999999999
2022-08-30T20:48:13.408Z,1005.822
2022-08-30T21:18:29.497Z,1005.8589999999999
2022-08-30T21:48:46.441Z,1005.8430000000001
2022-08-30T22:19:03.726Z,1005.9960000000001
2022-08-30T22:49:22.314Z,1006.203
2022-08-30T23:19:40.114Z,1006.248
2022-08-30T23:49:56.698Z,1006.4110000000001
